sensor_id;sensor_type;location;lat;lon;timestamp;P1;durP1;ratioP1;P2;durP2;ratioP2
5904;SDS011;2978;42.012;24.880;2022-12-07T00:02:24;17.00;;;8.50;;
5904;SDS011;2978;42.012;24.880;2022-12-07T00:04:49;14.43;;;7.47;;
5904;SDS011;2978;42.012;24.880;2022-12-07T00:07:15;13.27;;;6.73;;
5904;SDS011;2978;42.012;24.880;2022-12-07T00:09:40;12.37;;;7.20;;
5904;SDS011;2978;42.012;24.880;2022-12-07T00:12:06;18.00;;;8.90;;
5904;SDS011;2978;42.012;24.880;2022-12-07T00:14:33;29.30;;;10.40;;
5904;SDS011;2978;42.012;24.880;2022-12-07T00:16:58;17.90;;;8.13;;
5904;SDS011;2978;42.012;24.880;2022-12-07T00:19:24;16.03;;;8.07;;
5904;SDS011;2978;42.012;24.880;2022-12-07T00:21:49;18.00;;;8.63;;
5904;SDS011;2978;42.012;24.880;2022-12-07T00:24:15;19.87;;;8.80;;
5904;SDS011;2978;42.012;24.880;2022-12-07T00:26:41;16.07;;;7.50;;
5904;SDS011;2978;42.012;24.880;2022-12-07T00:29:09;14.53;;;7.73;;
5904;SDS011;2978;42.012;24.880;2022-12-07T00:31:40;16.70;;;7.47;;
5904;SDS011;2978;42.012;24.880;2022-12-07T00:34:06;19.80;;;9.57;;
5904;SDS011;2978;42.012;24.880;2022-12-07T00:36:32;15.47;;;8.00;;
5904;SDS011;2978;42.012;24.880;2022-12-07T00:38:59;12.00;;;6.67;;
5904;SDS011;2978;42.012;24.880;2022-12-07T00:41:25;10.17;;;6.50;;
5904;SDS011;2978;42.012;24.880;2022-12-07T00:43:52;16.10;;;7.00;;
5904;SDS011;2978;42.012;24.880;2022-12-07T00:46:18;11.30;;;8.33;;
5904;SDS011;2978;42.012;24.880;2022-12-07T00:48:45;13.90;;;7.77;;
5904;SDS011;2978;42.012;24.880;2022-12-07T00:51:12;15.30;;;7.17;;
5904;SDS011;2978;42.012;24.880;2022-12-07T00:53:39;11.03;;;6.13;;
5904;SDS011;2978;42.012;24.880;2022-12-07T00:56:08;11.13;;;5.70;;
5904;SDS011;2978;42.012;24.880;2022-12-07T00:58:49;10.57;;;5.50;;
5904;SDS011;2978;42.012;24.880;2022-12-07T01:01:28;8.20;;;5.57;;
5904;SDS011;2978;42.012;24.880;2022-12-07T01:03:55;12.10;;;5.70;;
5904;SDS011;2978;42.012;24.880;2022-12-07T01:06:21;10.00;;;4.83;;
5904;SDS011;2978;42.012;24.880;2022-12-07T01:08:48;10.63;;;4.87;;
5904;SDS011;2978;42.012;24.880;2022-12-07T01:11:15;13.23;;;5.40;;
5904;SDS011;2978;42.012;24.880;2022-12-07T01:13:43;10.30;;;6.30;;
5904;SDS011;2978;42.012;24.880;2022-12-07T01:16:10;7.90;;;5.03;;
5904;SDS011;2978;42.012;24.880;2022-12-07T01:18:38;10.43;;;5.90;;
5904;SDS011;2978;42.012;24.880;2022-12-07T01:21:06;6.93;;;5.00;;
5904;SDS011;2978;42.012;24.880;2022-12-07T01:23:34;8.47;;;5.30;;
5904;SDS011;2978;42.012;24.880;2022-12-07T01:26:01;8.17;;;5.40;;
5904;SDS011;2978;42.012;24.880;2022-12-07T01:28:29;7.07;;;4.37;;
5904;SDS011;2978;42.012;24.880;2022-12-07T01:31:05;9.20;;;5.40;;
5904;SDS011;2978;42.012;24.880;2022-12-07T01:33:33;15.20;;;5.33;;
5904;SDS011;2978;42.012;24.880;2022-12-07T01:36:04;7.07;;;5.07;;
5904;SDS011;2978;42.012;24.880;2022-12-07T01:38:31;17.13;;;4.70;;
5904;SDS011;2978;42.012;24.880;2022-12-07T01:40:57;10.30;;;4.50;;
5904;SDS011;2978;42.012;24.880;2022-12-07T01:43:26;10.13;;;4.07;;
5904;SDS011;2978;42.012;24.880;2022-12-07T01:45:54;8.77;;;4.63;;
5904;SDS011;2978;42.012;24.880;2022-12-07T01:48:24;9.70;;;4.60;;
5904;SDS011;2978;42.012;24.880;2022-12-07T01:51:04;10.40;;;5.43;;
5904;SDS011;2978;42.012;24.880;2022-12-07T01:53:33;8.47;;;4.10;;
5904;SDS011;2978;42.012;24.880;2022-12-07T01:56:03;12.10;;;4.63;;
5904;SDS011;2978;42.012;24.880;2022-12-07T01:58:30;7.03;;;4.33;;
5904;SDS011;2978;42.012;24.880;2022-12-07T02:00:56;9.40;;;5.13;;
5904;SDS011;2978;42.012;24.880;2022-12-07T02:03:24;7.40;;;5.00;;
5904;SDS011;2978;42.012;24.880;2022-12-07T02:06:12;11.30;;;4.50;;
5904;SDS011;2978;42.012;24.880;2022-12-07T02:08:42;7.43;;;4.40;;
5904;SDS011;2978;42.012;24.880;2022-12-07T02:11:08;7.17;;;5.00;;
5904;SDS011;2978;42.012;24.880;2022-12-07T02:13:35;7.83;;;4.40;;
5904;SDS011;2978;42.012;24.880;2022-12-07T02:16:09;8.10;;;4.70;;
5904;SDS011;2978;42.012;24.880;2022-12-07T02:30:20;5.50;;;4.40;;
5904;SDS011;2978;42.012;24.880;2022-12-07T02:32:53;5.80;;;4.43;;
5904;SDS011;2978;42.012;24.880;2022-12-07T02:35:40;9.57;;;4.33;;
5904;SDS011;2978;42.012;24.880;2022-12-07T02:43:18;6.07;;;3.83;;
5904;SDS011;2978;42.012;24.880;2022-12-07T02:45:54;6.77;;;4.43;;
5904;SDS011;2978;42.012;24.880;2022-12-07T02:48:25;6.50;;;3.50;;
5904;SDS011;2978;42.012;24.880;2022-12-07T02:50:52;5.80;;;3.67;;
5904;SDS011;2978;42.012;24.880;2022-12-07T02:53:29;7.93;;;4.30;;
5904;SDS011;2978;42.012;24.880;2022-12-07T02:55:58;13.93;;;4.00;;
5904;SDS011;2978;42.012;24.880;2022-12-07T02:58:36;10.03;;;4.03;;
5904;SDS011;2978;42.012;24.880;2022-12-07T03:03:53;14.60;;;4.60;;
5904;SDS011;2978;42.012;24.880;2022-12-07T03:06:35;6.47;;;4.47;;
5904;SDS011;2978;42.012;24.880;2022-12-07T03:09:20;8.60;;;4.40;;
5904;SDS011;2978;42.012;24.880;2022-12-07T03:12:06;7.97;;;4.30;;
5904;SDS011;2978;42.012;24.880;2022-12-07T03:15:07;11.37;;;4.13;;
5904;SDS011;2978;42.012;24.880;2022-12-07T03:17:39;9.33;;;3.80;;
5904;SDS011;2978;42.012;24.880;2022-12-07T03:20:09;8.90;;;4.10;;
5904;SDS011;2978;42.012;24.880;2022-12-07T03:22:38;7.03;;;4.03;;
5904;SDS011;2978;42.012;24.880;2022-12-07T03:25:08;4.83;;;3.40;;
5904;SDS011;2978;42.012;24.880;2022-12-07T03:27:42;5.47;;;3.33;;
5904;SDS011;2978;42.012;24.880;2022-12-07T03:30:10;8.30;;;4.53;;
5904;SDS011;2978;42.012;24.880;2022-12-07T03:32:50;5.40;;;3.33;;
5904;SDS011;2978;42.012;24.880;2022-12-07T03:35:31;9.67;;;4.90;;
5904;SDS011;2978;42.012;24.880;2022-12-07T03:38:25;8.60;;;4.87;;
5904;SDS011;2978;42.012;24.880;2022-12-07T03:41:06;5.97;;;3.60;;
5904;SDS011;2978;42.012;24.880;2022-12-07T03:43:37;9.83;;;3.70;;
5904;SDS011;2978;42.012;24.880;2022-12-07T03:48:59;8.00;;;3.63;;
5904;SDS011;2978;42.012;24.880;2022-12-07T03:51:32;7.77;;;3.90;;
5904;SDS011;2978;42.012;24.880;2022-12-07T03:56:36;16.33;;;3.97;;
5904;SDS011;2978;42.012;24.880;2022-12-07T03:59:01;5.33;;;3.77;;
5904;SDS011;2978;42.012;24.880;2022-12-07T04:01:27;5.10;;;4.10;;
5904;SDS011;2978;42.012;24.880;2022-12-07T04:03:53;8.30;;;3.80;;
5904;SDS011;2978;42.012;24.880;2022-12-07T04:06:18;9.70;;;4.43;;
5904;SDS011;2978;42.012;24.880;2022-12-07T04:08:44;13.30;;;4.47;;
5904;SDS011;2978;42.012;24.880;2022-12-07T04:11:09;7.47;;;4.20;;
5904;SDS011;2978;42.012;24.880;2022-12-07T04:13:35;10.17;;;3.90;;
5904;SDS011;2978;42.012;24.880;2022-12-07T04:16:20;7.40;;;3.97;;
5904;SDS011;2978;42.012;24.880;2022-12-07T04:18:45;12.53;;;3.57;;
5904;SDS011;2978;42.012;24.880;2022-12-07T04:21:11;6.57;;;4.03;;
5904;SDS011;2978;42.012;24.880;2022-12-07T04:23:36;7.80;;;3.80;;
5904;SDS011;2978;42.012;24.880;2022-12-07T04:26:02;10.57;;;4.40;;
5904;SDS011;2978;42.012;24.880;2022-12-07T04:28:27;6.83;;;3.90;;
5904;SDS011;2978;42.012;24.880;2022-12-07T04:30:53;8.50;;;3.27;;
5904;SDS011;2978;42.012;24.880;2022-12-07T04:33:18;5.73;;;3.80;;
5904;SDS011;2978;42.012;24.880;2022-12-07T04:35:43;6.83;;;3.37;;
5904;SDS011;2978;42.012;24.880;2022-12-07T04:38:09;5.83;;;3.50;;
5904;SDS011;2978;42.012;24.880;2022-12-07T04:40:34;8.20;;;5.23;;
5904;SDS011;2978;42.012;24.880;2022-12-07T04:43:00;9.43;;;3.00;;
5904;SDS011;2978;42.012;24.880;2022-12-07T04:45:25;9.40;;;3.00;;
5904;SDS011;2978;42.012;24.880;2022-12-07T04:47:51;5.70;;;2.83;;
5904;SDS011;2978;42.012;24.880;2022-12-07T04:50:16;28.87;;;3.27;;
5904;SDS011;2978;42.012;24.880;2022-12-07T04:52:41;7.87;;;3.27;;
5904;SDS011;2978;42.012;24.880;2022-12-07T04:55:07;4.20;;;3.20;;
5904;SDS011;2978;42.012;24.880;2022-12-07T04:57:32;9.40;;;3.60;;
5904;SDS011;2978;42.012;24.880;2022-12-07T04:59:58;18.13;;;4.13;;
5904;SDS011;2978;42.012;24.880;2022-12-07T05:02:23;7.43;;;3.23;;
5904;SDS011;2978;42.012;24.880;2022-12-07T05:04:49;6.43;;;3.23;;
5904;SDS011;2978;42.012;24.880;2022-12-07T05:07:14;7.50;;;3.40;;
5904;SDS011;2978;42.012;24.880;2022-12-07T05:09:39;5.57;;;3.23;;
5904;SDS011;2978;42.012;24.880;2022-12-07T05:12:05;8.00;;;3.37;;
5904;SDS011;2978;42.012;24.880;2022-12-07T05:14:30;13.70;;;3.83;;
5904;SDS011;2978;42.012;24.880;2022-12-07T05:16:56;10.47;;;3.63;;
5904;SDS011;2978;42.012;24.880;2022-12-07T05:19:21;13.30;;;3.73;;
5904;SDS011;2978;42.012;24.880;2022-12-07T05:21:47;10.70;;;4.50;;
5904;SDS011;2978;42.012;24.880;2022-12-07T05:24:13;12.50;;;2.97;;
5904;SDS011;2978;42.012;24.880;2022-12-07T05:26:40;9.80;;;3.30;;
5904;SDS011;2978;42.012;24.880;2022-12-07T05:29:05;9.73;;;3.27;;
5904;SDS011;2978;42.012;24.880;2022-12-07T05:31:31;12.60;;;2.83;;
5904;SDS011;2978;42.012;24.880;2022-12-07T05:33:57;5.93;;;3.00;;
5904;SDS011;2978;42.012;24.880;2022-12-07T05:36:23;13.17;;;3.30;;
5904;SDS011;2978;42.012;24.880;2022-12-07T05:38:48;4.33;;;3.03;;
5904;SDS011;2978;42.012;24.880;2022-12-07T05:41:15;8.67;;;3.00;;
5904;SDS011;2978;42.012;24.880;2022-12-07T05:44:01;8.53;;;4.40;;
5904;SDS011;2978;42.012;24.880;2022-12-07T05:46:27;7.27;;;3.53;;
5904;SDS011;2978;42.012;24.880;2022-12-07T05:48:52;14.83;;;4.40;;
5904;SDS011;2978;42.012;24.880;2022-12-07T05:51:18;10.80;;;4.20;;
5904;SDS011;2978;42.012;24.880;2022-12-07T05:53:43;24.73;;;4.90;;
5904;SDS011;2978;42.012;24.880;2022-12-07T05:56:09;12.93;;;3.27;;
5904;SDS011;2978;42.012;24.880;2022-12-07T05:58:35;8.57;;;3.13;;
5904;SDS011;2978;42.012;24.880;2022-12-07T06:01:19;7.00;;;3.83;;
5904;SDS011;2978;42.012;24.880;2022-12-07T06:03:44;15.83;;;4.70;;
5904;SDS011;2978;42.012;24.880;2022-12-07T06:06:10;8.10;;;4.30;;
5904;SDS011;2978;42.012;24.880;2022-12-07T06:08:35;6.40;;;3.20;;
5904;SDS011;2978;42.012;24.880;2022-12-07T06:11:01;13.50;;;3.50;;
5904;SDS011;2978;42.012;24.880;2022-12-07T06:13:45;19.80;;;3.83;;
5904;SDS011;2978;42.012;24.880;2022-12-07T06:16:10;23.23;;;4.77;;
5904;SDS011;2978;42.012;24.880;2022-12-07T06:18:36;17.63;;;5.23;;
5904;SDS011;2978;42.012;24.880;2022-12-07T06:21:01;17.40;;;5.40;;
5904;SDS011;2978;42.012;24.880;2022-12-07T06:23:27;19.17;;;4.17;;
5904;SDS011;2978;42.012;24.880;2022-12-07T06:25:52;30.70;;;6.67;;
5904;SDS011;2978;42.012;24.880;2022-12-07T06:28:17;12.93;;;4.37;;
5904;SDS011;2978;42.012;24.880;2022-12-07T06:30:43;22.40;;;6.20;;
5904;SDS011;2978;42.012;24.880;2022-12-07T06:33:08;20.50;;;4.97;;
5904;SDS011;2978;42.012;24.880;2022-12-07T06:35:34;8.80;;;3.90;;
5904;SDS011;2978;42.012;24.880;2022-12-07T06:37:59;11.73;;;4.83;;
5904;SDS011;2978;42.012;24.880;2022-12-07T06:40:24;20.47;;;5.10;;
5904;SDS011;2978;42.012;24.880;2022-12-07T06:42:50;19.53;;;5.93;;
5904;SDS011;2978;42.012;24.880;2022-12-07T06:45:15;25.17;;;5.13;;
5904;SDS011;2978;42.012;24.880;2022-12-07T06:47:41;22.00;;;6.80;;
5904;SDS011;2978;42.012;24.880;2022-12-07T06:50:06;16.87;;;4.13;;
5904;SDS011;2978;42.012;24.880;2022-12-07T06:52:32;18.73;;;4.60;;
5904;SDS011;2978;42.012;24.880;2022-12-07T06:54:58;12.73;;;5.93;;
5904;SDS011;2978;42.012;24.880;2022-12-07T06:57:24;27.67;;;6.00;;
5904;SDS011;2978;42.012;24.880;2022-12-07T06:59:50;16.43;;;6.87;;
5904;SDS011;2978;42.012;24.880;2022-12-07T07:02:15;11.63;;;3.97;;
5904;SDS011;2978;42.012;24.880;2022-12-07T07:04:41;16.33;;;4.73;;
5904;SDS011;2978;42.012;24.880;2022-12-07T07:07:07;13.87;;;4.40;;
5904;SDS011;2978;42.012;24.880;2022-12-07T07:09:32;26.37;;;5.10;;
5904;SDS011;2978;42.012;24.880;2022-12-07T07:11:57;26.27;;;4.67;;
5904;SDS011;2978;42.012;24.880;2022-12-07T07:14:23;11.10;;;4.80;;
5904;SDS011;2978;42.012;24.880;2022-12-07T07:16:48;14.80;;;4.60;;
5904;SDS011;2978;42.012;24.880;2022-12-07T07:19:14;15.20;;;5.37;;
5904;SDS011;2978;42.012;24.880;2022-12-07T07:21:39;14.53;;;6.10;;
5904;SDS011;2978;42.012;24.880;2022-12-07T07:24:05;33.90;;;7.17;;
5904;SDS011;2978;42.012;24.880;2022-12-07T07:26:30;14.17;;;5.40;;
5904;SDS011;2978;42.012;24.880;2022-12-07T07:28:56;28.77;;;6.40;;
5904;SDS011;2978;42.012;24.880;2022-12-07T07:31:21;29.90;;;9.20;;
5904;SDS011;2978;42.012;24.880;2022-12-07T07:33:47;40.90;;;6.80;;
5904;SDS011;2978;42.012;24.880;2022-12-07T07:36:12;13.17;;;5.60;;
5904;SDS011;2978;42.012;24.880;2022-12-07T07:38:38;19.77;;;4.57;;
5904;SDS011;2978;42.012;24.880;2022-12-07T07:41:04;16.00;;;6.10;;
5904;SDS011;2978;42.012;24.880;2022-12-07T07:43:29;15.43;;;4.60;;
5904;SDS011;2978;42.012;24.880;2022-12-07T07:45:55;14.70;;;5.57;;
5904;SDS011;2978;42.012;24.880;2022-12-07T07:48:20;27.70;;;7.50;;
5904;SDS011;2978;42.012;24.880;2022-12-07T07:50:47;37.33;;;8.33;;
5904;SDS011;2978;42.012;24.880;2022-12-07T07:53:13;15.53;;;6.27;;
5904;SDS011;2978;42.012;24.880;2022-12-07T07:55:38;16.07;;;6.80;;
5904;SDS011;2978;42.012;24.880;2022-12-07T07:58:04;23.20;;;7.57;;
5904;SDS011;2978;42.012;24.880;2022-12-07T08:00:29;32.93;;;9.27;;
5904;SDS011;2978;42.012;24.880;2022-12-07T08:02:55;27.77;;;9.20;;
5904;SDS011;2978;42.012;24.880;2022-12-07T08:05:20;50.17;;;7.93;;
5904;SDS011;2978;42.012;24.880;2022-12-07T08:07:46;29.03;;;6.53;;
5904;SDS011;2978;42.012;24.880;2022-12-07T08:10:12;19.93;;;6.70;;
5904;SDS011;2978;42.012;24.880;2022-12-07T08:12:39;16.07;;;8.73;;
5904;SDS011;2978;42.012;24.880;2022-12-07T08:15:26;15.30;;;8.97;;
5904;SDS011;2978;42.012;24.880;2022-12-07T08:17:56;18.93;;;8.97;;
5904;SDS011;2978;42.012;24.880;2022-12-07T08:32:11;21.43;;;11.50;;
5904;SDS011;2978;42.012;24.880;2022-12-07T08:34:36;22.93;;;11.60;;
5904;SDS011;2978;42.012;24.880;2022-12-07T08:37:02;31.90;;;13.30;;
5904;SDS011;2978;42.012;24.880;2022-12-07T08:39:27;26.93;;;15.00;;
5904;SDS011;2978;42.012;24.880;2022-12-07T08:41:53;32.63;;;15.50;;
5904;SDS011;2978;42.012;24.880;2022-12-07T08:44:18;39.07;;;16.90;;
5904;SDS011;2978;42.012;24.880;2022-12-07T08:46:53;57.23;;;18.47;;
5904;SDS011;2978;42.012;24.880;2022-12-07T08:49:24;50.37;;;19.23;;
5904;SDS011;2978;42.012;24.880;2022-12-07T08:52:03;44.80;;;19.30;;
5904;SDS011;2978;42.012;24.880;2022-12-07T08:54:29;37.53;;;17.97;;
5904;SDS011;2978;42.012;24.880;2022-12-07T08:56:55;36.27;;;17.83;;
5904;SDS011;2978;42.012;24.880;2022-12-07T08:59:21;31.17;;;15.90;;
5904;SDS011;2978;42.012;24.880;2022-12-07T09:01:48;30.23;;;16.70;;
5904;SDS011;2978;42.012;24.880;2022-12-07T09:04:13;31.37;;;15.07;;
5904;SDS011;2978;42.012;24.880;2022-12-07T09:06:40;33.80;;;17.83;;
5904;SDS011;2978;42.012;24.880;2022-12-07T09:09:06;29.60;;;15.63;;
5904;SDS011;2978;42.012;24.880;2022-12-07T09:11:33;35.43;;;18.10;;
5904;SDS011;2978;42.012;24.880;2022-12-07T09:13:58;33.13;;;18.83;;
5904;SDS011;2978;42.012;24.880;2022-12-07T09:16:23;39.33;;;16.67;;
5904;SDS011;2978;42.012;24.880;2022-12-07T09:18:49;40.43;;;19.67;;
5904;SDS011;2978;42.012;24.880;2022-12-07T09:21:14;54.47;;;26.67;;
5904;SDS011;2978;42.012;24.880;2022-12-07T09:23:41;33.40;;;17.10;;
5904;SDS011;2978;42.012;24.880;2022-12-07T09:26:07;26.80;;;15.20;;
5904;SDS011;2978;42.012;24.880;2022-12-07T09:28:33;37.60;;;20.17;;
5904;SDS011;2978;42.012;24.880;2022-12-07T09:30:58;48.27;;;24.87;;
5904;SDS011;2978;42.012;24.880;2022-12-07T09:33:24;39.90;;;21.07;;
5904;SDS011;2978;42.012;24.880;2022-12-07T09:35:51;38.70;;;20.03;;
5904;SDS011;2978;42.012;24.880;2022-12-07T09:38:18;37.17;;;19.47;;
5904;SDS011;2978;42.012;24.880;2022-12-07T09:40:44;36.50;;;18.80;;
5904;SDS011;2978;42.012;24.880;2022-12-07T09:43:12;32.30;;;17.53;;
5904;SDS011;2978;42.012;24.880;2022-12-07T09:45:46;31.93;;;18.23;;
5904;SDS011;2978;42.012;24.880;2022-12-07T09:48:18;41.67;;;21.20;;
5904;SDS011;2978;42.012;24.880;2022-12-07T09:50:47;43.50;;;19.00;;
5904;SDS011;2978;42.012;24.880;2022-12-07T09:53:15;58.60;;;20.53;;
5904;SDS011;2978;42.012;24.880;2022-12-07T09:55:58;44.57;;;19.20;;
5904;SDS011;2978;42.012;24.880;2022-12-07T09:58:25;36.40;;;18.40;;
5904;SDS011;2978;42.012;24.880;2022-12-07T10:01:13;51.83;;;27.90;;
5904;SDS011;2978;42.012;24.880;2022-12-07T10:03:52;42.23;;;20.00;;
5904;SDS011;2978;42.012;24.880;2022-12-07T10:06:20;35.57;;;19.13;;
5904;SDS011;2978;42.012;24.880;2022-12-07T10:08:46;40.67;;;20.83;;
5904;SDS011;2978;42.012;24.880;2022-12-07T10:11:12;32.73;;;21.00;;
5904;SDS011;2978;42.012;24.880;2022-12-07T10:13:46;38.17;;;21.50;;
5904;SDS011;2978;42.012;24.880;2022-12-07T10:22:01;29.73;;;18.97;;
5904;SDS011;2978;42.012;24.880;2022-12-07T10:24:30;36.90;;;19.13;;
5904;SDS011;2978;42.012;24.880;2022-12-07T10:26:56;30.50;;;18.23;;
5904;SDS011;2978;42.012;24.880;2022-12-07T10:32:08;29.60;;;17.30;;
5904;SDS011;2978;42.012;24.880;2022-12-07T10:37:46;33.97;;;19.47;;
5904;SDS011;2978;42.012;24.880;2022-12-07T10:45:27;39.77;;;18.30;;
5904;SDS011;2978;42.012;24.880;2022-12-07T10:53:51;29.23;;;17.37;;
5904;SDS011;2978;42.012;24.880;2022-12-07T11:02:08;28.93;;;16.77;;
5904;SDS011;2978;42.012;24.880;2022-12-07T11:24:19;35.63;;;19.90;;
5904;SDS011;2978;42.012;24.880;2022-12-07T11:27:37;27.97;;;18.23;;
5904;SDS011;2978;42.012;24.880;2022-12-07T11:30:01;38.93;;;20.73;;
5904;SDS011;2978;42.012;24.880;2022-12-07T11:32:47;45.87;;;25.43;;
5904;SDS011;2978;42.012;24.880;2022-12-07T11:38:01;29.40;;;16.37;;
5904;SDS011;2978;42.012;24.880;2022-12-07T11:40:36;59.93;;;31.10;;
5904;SDS011;2978;42.012;24.880;2022-12-07T11:43:21;44.80;;;22.70;;
5904;SDS011;2978;42.012;24.880;2022-12-07T11:48:45;31.50;;;18.63;;
5904;SDS011;2978;42.012;24.880;2022-12-07T11:51:16;30.40;;;17.67;;
5904;SDS011;2978;42.012;24.880;2022-12-07T11:53:53;27.20;;;16.00;;
5904;SDS011;2978;42.012;24.880;2022-12-07T11:56:24;24.13;;;14.77;;
5904;SDS011;2978;42.012;24.880;2022-12-07T11:59:03;27.60;;;17.20;;
5904;SDS011;2978;42.012;24.880;2022-12-07T12:04:31;32.03;;;15.70;;
5904;SDS011;2978;42.012;24.880;2022-12-07T12:07:16;73.57;;;24.10;;
5904;SDS011;2978;42.012;24.880;2022-12-07T12:09:54;27.80;;;14.40;;
5904;SDS011;2978;42.012;24.880;2022-12-07T12:12:39;25.50;;;13.00;;
5904;SDS011;2978;42.012;24.880;2022-12-07T12:15:13;22.63;;;13.50;;
5904;SDS011;2978;42.012;24.880;2022-12-07T12:17:57;31.33;;;15.73;;
5904;SDS011;2978;42.012;24.880;2022-12-07T12:26:15;19.17;;;12.37;;
5904;SDS011;2978;42.012;24.880;2022-12-07T12:28:58;23.00;;;13.73;;
5904;SDS011;2978;42.012;24.880;2022-12-07T12:31:34;34.60;;;17.00;;
5904;SDS011;2978;42.012;24.880;2022-12-07T12:37:38;33.20;;;14.67;;
5904;SDS011;2978;42.012;24.880;2022-12-07T12:42:43;31.13;;;16.10;;
5904;SDS011;2978;42.012;24.880;2022-12-07T12:47:52;37.50;;;15.13;;
5904;SDS011;2978;42.012;24.880;2022-12-07T12:53:02;26.97;;;13.67;;
5904;SDS011;2978;42.012;24.880;2022-12-07T13:00:43;44.47;;;14.70;;
5904;SDS011;2978;42.012;24.880;2022-12-07T13:03:26;31.63;;;16.80;;
5904;SDS011;2978;42.012;24.880;2022-12-07T13:08:44;41.20;;;17.37;;
5904;SDS011;2978;42.012;24.880;2022-12-07T13:11:26;35.13;;;18.60;;
5904;SDS011;2978;42.012;24.880;2022-12-07T13:20:00;24.10;;;13.60;;
5904;SDS011;2978;42.012;24.880;2022-12-07T13:24:56;44.97;;;21.17;;
5904;SDS011;2978;42.012;24.880;2022-12-07T13:27:34;35.30;;;17.67;;
5904;SDS011;2978;42.012;24.880;2022-12-07T13:30:07;43.80;;;20.43;;
5904;SDS011;2978;42.012;24.880;2022-12-07T13:32:55;36.90;;;17.87;;
5904;SDS011;2978;42.012;24.880;2022-12-07T13:37:59;55.97;;;26.87;;
5904;SDS011;2978;42.012;24.880;2022-12-07T13:40:28;33.27;;;19.27;;
5904;SDS011;2978;42.012;24.880;2022-12-07T13:43:01;18.60;;;12.53;;
5904;SDS011;2978;42.012;24.880;2022-12-07T13:45:30;31.27;;;17.20;;
5904;SDS011;2978;42.012;24.880;2022-12-07T13:48:41;34.00;;;17.80;;
5904;SDS011;2978;42.012;24.880;2022-12-07T13:51:16;22.23;;;14.17;;
5904;SDS011;2978;42.012;24.880;2022-12-07T13:53:47;32.17;;;17.33;;
5904;SDS011;2978;42.012;24.880;2022-12-07T13:56:21;35.40;;;16.57;;
5904;SDS011;2978;42.012;24.880;2022-12-07T13:58:51;38.50;;;18.37;;
5904;SDS011;2978;42.012;24.880;2022-12-07T14:01:16;35.97;;;17.20;;
5904;SDS011;2978;42.012;24.880;2022-12-07T14:03:43;36.30;;;20.23;;
5904;SDS011;2978;42.012;24.880;2022-12-07T14:06:14;55.23;;;26.17;;
5904;SDS011;2978;42.012;24.880;2022-12-07T14:08:50;48.40;;;24.10;;
5904;SDS011;2978;42.012;24.880;2022-12-07T14:11:30;50.93;;;27.57;;
5904;SDS011;2978;42.012;24.880;2022-12-07T14:13:57;48.07;;;27.00;;
5904;SDS011;2978;42.012;24.880;2022-12-07T14:16:30;66.13;;;30.77;;
5904;SDS011;2978;42.012;24.880;2022-12-07T14:18:57;69.70;;;42.20;;
5904;SDS011;2978;42.012;24.880;2022-12-07T14:21:25;88.97;;;55.37;;
5904;SDS011;2978;42.012;24.880;2022-12-07T14:26:48;70.53;;;37.53;;
5904;SDS011;2978;42.012;24.880;2022-12-07T14:31:52;61.57;;;39.07;;
5904;SDS011;2978;42.012;24.880;2022-12-07T14:34:21;48.57;;;27.93;;
5904;SDS011;2978;42.012;24.880;2022-12-07T14:36:47;66.03;;;31.87;;
5904;SDS011;2978;42.012;24.880;2022-12-07T14:39:12;86.80;;;35.37;;
5904;SDS011;2978;42.012;24.880;2022-12-07T14:41:38;90.40;;;45.77;;
5904;SDS011;2978;42.012;24.880;2022-12-07T14:44:15;84.80;;;43.30;;
5904;SDS011;2978;42.012;24.880;2022-12-07T14:46:42;65.27;;;33.63;;
5904;SDS011;2978;42.012;24.880;2022-12-07T14:49:07;115.90;;;58.10;;
5904;SDS011;2978;42.012;24.880;2022-12-07T14:51:33;116.30;;;54.57;;
5904;SDS011;2978;42.012;24.880;2022-12-07T14:54:03;131.93;;;69.77;;
5904;SDS011;2978;42.012;24.880;2022-12-07T14:56:32;124.47;;;66.10;;
5904;SDS011;2978;42.012;24.880;2022-12-07T14:58:57;141.23;;;64.63;;
5904;SDS011;2978;42.012;24.880;2022-12-07T15:01:23;102.93;;;52.20;;
5904;SDS011;2978;42.012;24.880;2022-12-07T15:03:48;92.00;;;50.13;;
5904;SDS011;2978;42.012;24.880;2022-12-07T15:06:15;95.43;;;53.03;;
5904;SDS011;2978;42.012;24.880;2022-12-07T15:08:41;90.00;;;39.93;;
5904;SDS011;2978;42.012;24.880;2022-12-07T15:11:13;74.13;;;36.53;;
5904;SDS011;2978;42.012;24.880;2022-12-07T15:13:39;67.97;;;36.93;;
5904;SDS011;2978;42.012;24.880;2022-12-07T15:16:23;83.13;;;34.87;;
5904;SDS011;2978;42.012;24.880;2022-12-07T15:18:48;54.67;;;32.93;;
5904;SDS011;2978;42.012;24.880;2022-12-07T15:21:14;61.33;;;31.80;;
5904;SDS011;2978;42.012;24.880;2022-12-07T15:23:40;81.07;;;30.93;;
5904;SDS011;2978;42.012;24.880;2022-12-07T15:26:06;67.40;;;27.07;;
5904;SDS011;2978;42.012;24.880;2022-12-07T15:28:32;86.20;;;28.00;;
5904;SDS011;2978;42.012;24.880;2022-12-07T15:30:58;68.77;;;30.33;;
5904;SDS011;2978;42.012;24.880;2022-12-07T15:33:24;72.37;;;30.87;;
5904;SDS011;2978;42.012;24.880;2022-12-07T15:35:49;71.83;;;32.17;;
5904;SDS011;2978;42.012;24.880;2022-12-07T15:38:15;58.03;;;29.17;;
5904;SDS011;2978;42.012;24.880;2022-12-07T15:40:40;44.03;;;25.47;;
5904;SDS011;2978;42.012;24.880;2022-12-07T15:43:07;43.73;;;22.47;;
5904;SDS011;2978;42.012;24.880;2022-12-07T15:45:54;32.87;;;18.40;;
5904;SDS011;2978;42.012;24.880;2022-12-07T15:48:19;44.67;;;18.23;;
5904;SDS011;2978;42.012;24.880;2022-12-07T15:50:45;36.60;;;19.83;;
5904;SDS011;2978;42.012;24.880;2022-12-07T15:53:10;33.53;;;18.13;;
5904;SDS011;2978;42.012;24.880;2022-12-07T15:55:38;30.07;;;16.50;;
5904;SDS011;2978;42.012;24.880;2022-12-07T15:58:04;28.50;;;16.03;;
5904;SDS011;2978;42.012;24.880;2022-12-07T16:00:29;29.37;;;16.23;;
5904;SDS011;2978;42.012;24.880;2022-12-07T16:02:54;34.13;;;16.60;;
5904;SDS011;2978;42.012;24.880;2022-12-07T16:05:20;39.67;;;18.27;;
5904;SDS011;2978;42.012;24.880;2022-12-07T16:07:45;44.63;;;18.93;;
5904;SDS011;2978;42.012;24.880;2022-12-07T16:10:12;48.77;;;18.20;;
5904;SDS011;2978;42.012;24.880;2022-12-07T16:12:38;55.07;;;17.50;;
5904;SDS011;2978;42.012;24.880;2022-12-07T16:15:03;28.47;;;17.17;;
5904;SDS011;2978;42.012;24.880;2022-12-07T16:17:29;30.57;;;14.90;;
5904;SDS011;2978;42.012;24.880;2022-12-07T16:19:55;35.03;;;16.67;;
5904;SDS011;2978;42.012;24.880;2022-12-07T16:22:23;29.03;;;15.97;;
5904;SDS011;2978;42.012;24.880;2022-12-07T16:24:48;41.37;;;14.20;;
5904;SDS011;2978;42.012;24.880;2022-12-07T16:27:14;33.50;;;14.27;;
5904;SDS011;2978;42.012;24.880;2022-12-07T16:29:39;26.80;;;13.37;;
5904;SDS011;2978;42.012;24.880;2022-12-07T16:32:05;32.70;;;17.73;;
5904;SDS011;2978;42.012;24.880;2022-12-07T16:34:31;29.03;;;15.97;;
5904;SDS011;2978;42.012;24.880;2022-12-07T16:36:57;28.63;;;14.40;;
5904;SDS011;2978;42.012;24.880;2022-12-07T16:39:22;31.00;;;14.33;;
5904;SDS011;2978;42.012;24.880;2022-12-07T16:41:49;40.47;;;15.53;;
5904;SDS011;2978;42.012;24.880;2022-12-07T16:44:15;25.77;;;13.80;;
5904;SDS011;2978;42.012;24.880;2022-12-07T16:46:40;33.93;;;15.53;;
5904;SDS011;2978;42.012;24.880;2022-12-07T16:49:08;28.73;;;15.30;;
5904;SDS011;2978;42.012;24.880;2022-12-07T16:51:36;28.40;;;16.20;;
5904;SDS011;2978;42.012;24.880;2022-12-07T16:54:02;30.43;;;15.37;;
5904;SDS011;2978;42.012;24.880;2022-12-07T16:56:27;32.87;;;17.70;;
5904;SDS011;2978;42.012;24.880;2022-12-07T16:58:54;39.43;;;17.40;;
5904;SDS011;2978;42.012;24.880;2022-12-07T17:01:20;32.83;;;16.63;;
5904;SDS011;2978;42.012;24.880;2022-12-07T17:03:47;31.07;;;14.47;;
5904;SDS011;2978;42.012;24.880;2022-12-07T17:06:14;30.30;;;13.60;;
5904;SDS011;2978;42.012;24.880;2022-12-07T17:08:43;24.70;;;13.93;;
5904;SDS011;2978;42.012;24.880;2022-12-07T17:11:09;30.40;;;15.30;;